createdAt,value
2022-08-17T00:00:44.062Z,56.12
2022-08-17T00:03:11.813Z,56.16
2022-08-17T00:05:47.927Z,56.37
2022-08-17T00:08:19.428Z,56.52
2022-08-17T00:10:47.935Z,56.58
2022-08-17T00:13:19.562Z,56.56
2022-08-17T00:15:48.534Z,56.66
2022-08-17T00:19:06.026Z,56.77
2022-08-17T00:21:10.664Z,57.10
2022-08-17T00:23:47.725Z,57.29
2022-08-17T00:26:34.643Z,57.29
2022-08-17T00:29:08.537Z,57.45
2022-08-17T00:31:38.634Z,57.42
2022-08-17T00:34:11.099Z,57.40
2022-08-17T00:36:40.530Z,57.57
2022-08-17T00:39:08.627Z,57.36
2022-08-17T00:41:36.700Z,57.19
2022-08-17T00:44:12.301Z,57.43
2022-08-17T00:46:43.291Z,57.40
2022-08-17T00:49:13.307Z,57.48
2022-08-17T00:51:47.399Z,57.48
2022-08-17T00:54:19.825Z,57.69
2022-08-17T00:56:52.161Z,57.60
2022-08-17T00:59:22.776Z,57.62
2022-08-17T01:01:51.985Z,57.67
2022-08-17T01:04:22.966Z,57.61
2022-08-17T01:06:54.686Z,57.63
2022-08-17T01:09:23.014Z,57.85
2022-08-17T01:11:52.392Z,57.90
2022-08-17T01:14:21.466Z,57.79
2022-08-17T01:16:50.673Z,57.67
2022-08-17T01:19:22.188Z,57.64
2022-08-17T01:21:56.138Z,57.56
2022-08-17T01:24:25.839Z,57.50
2022-08-17T01:26:53.912Z,57.43
2022-08-17T01:29:25.885Z,57.57
2022-08-17T01:31:57.816Z,57.60
2022-08-17T01:34:36.835Z,57.67
2022-08-17T01:37:12.240Z,57.58
2022-08-17T01:39:45.454Z,57.40
2022-08-17T01:42:20.277Z,57.32
2022-08-17T01:44:48.467Z,57.45
2022-08-17T01:47:16.569Z,57.51
2022-08-17T01:49:45.761Z,57.58
2022-08-17T01:52:14.495Z,57.75
2022-08-17T01:54:47.783Z,57.59
2022-08-17T01:57:16.127Z,57.57
2022-08-17T01:59:44.248Z,57.67
2022-08-17T02:02:12.382Z,57.62
2022-08-17T02:04:58.364Z,57.73
2022-08-17T02:07:27.063Z,57.61
2022-08-17T02:09:57.667Z,57.51
2022-08-17T02:12:37.252Z,57.63
2022-08-17T02:15:09.691Z,58.04
2022-08-17T02:17:37.762Z,57.90
2022-08-17T02:20:08.144Z,57.84
2022-08-17T02:22:37.367Z,58.06
2022-08-17T02:25:10.807Z,58.07
2022-08-17T02:27:40.250Z,58.45
2022-08-17T02:31:01.946Z,58.50
2022-08-17T02:33:00.266Z,58.47
2022-08-17T02:35:32.421Z,58.64
2022-08-17T02:38:01.772Z,58.84
2022-08-17T02:40:36.002Z,58.94
2022-08-17T02:43:05.673Z,59.02
2022-08-17T02:45:33.960Z,59.09
2022-08-17T02:48:02.138Z,59.23
2022-08-17T02:50:30.398Z,59.33
2022-08-17T02:53:02.532Z,59.35
2022-08-17T02:55:36.128Z,59.35
2022-08-17T02:58:04.710Z,59.48
2022-08-17T03:00:35.614Z,59.48
2022-08-17T03:03:06.028Z,59.47
2022-08-17T03:05:35.930Z,59.42
2022-08-17T03:08:04.652Z,59.63
2022-08-17T03:10:34.859Z,59.75
2022-08-17T03:13:02.922Z,59.88
2022-08-17T04:42:25.931Z,60.66
2022-08-17T04:44:54.231Z,60.66
2022-08-17T04:47:23.730Z,60.70
2022-08-17T04:49:53.593Z,60.69
2022-08-17T04:52:31.539Z,60.60
2022-08-17T04:55:10.855Z,60.53
2022-08-17T04:57:44.540Z,60.51
2022-08-17T05:00:14.448Z,60.57
2022-08-17T05:02:49.737Z,60.56
2022-08-17T05:05:20.209Z,60.67
2022-08-17T05:07:49.603Z,60.70
2022-08-17T05:10:18.217Z,60.64
2022-08-17T05:12:49.004Z,60.59
2022-08-17T05:15:17.329Z,60.61
2022-08-17T05:17:48.359Z,60.55
2022-08-17T05:20:16.844Z,60.56
2022-08-17T05:22:51.238Z,60.31
2022-08-17T05:25:25.542Z,60.44
2022-08-17T05:27:56.309Z,60.34
2022-08-17T05:30:27.948Z,60.51
2022-08-17T05:32:58.943Z,60.44
2022-08-17T05:35:28.958Z,60.29
2022-08-17T05:37:57.347Z,60.25
2022-08-17T05:40:27.372Z,60.14
2022-08-17T05:43:12.038Z,59.83
2022-08-17T05:45:54.324Z,60.12
2022-08-17T05:48:39.339Z,60.09
2022-08-17T05:51:33.209Z,59.70
2022-08-17T05:54:15.814Z,59.65
2022-08-17T05:57:04.370Z,59.77
2022-08-17T05:59:43.614Z,59.76
2022-08-17T06:02:21.391Z,59.75
2022-08-17T06:05:03.778Z,59.55
2022-08-17T06:07:37.822Z,59.61
2022-08-17T06:10:14.724Z,59.18
2022-08-17T06:12:57.147Z,58.94
2022-08-17T06:15:34.101Z,59.08
2022-08-17T06:18:05.449Z,59.45
2022-08-17T06:20:40.115Z,59.59
2022-08-17T06:23:14.397Z,59.68
2022-08-17T06:25:47.453Z,59.79
2022-08-17T06:28:24.357Z,59.60
2022-08-17T06:31:00.666Z,59.52
2022-08-17T06:33:34.859Z,59.61
2022-08-17T06:36:17.597Z,59.71
2022-08-17T06:39:00.133Z,59.68
2022-08-17T06:41:38.133Z,59.86
2022-08-17T06:44:43.211Z,59.93
2022-08-17T06:47:12.608Z,60.05
2022-08-17T06:49:54.650Z,60.24
2022-08-17T06:52:43.419Z,60.41
2022-08-17T06:55:21.422Z,60.46
2022-08-17T06:58:15.533Z,60.39
2022-08-17T07:00:48.371Z,60.80
2022-08-17T07:03:29.215Z,60.57
2022-08-17T07:06:03.169Z,60.76
2022-08-17T07:08:43.651Z,60.64
2022-08-17T07:11:19.361Z,60.57
2022-08-17T07:13:55.372Z,60.51
2022-08-17T07:16:29.231Z,60.41
2022-08-17T07:19:00.237Z,60.35
2022-08-17T07:21:40.977Z,60.22
2022-08-17T07:24:31.708Z,60.12
2022-08-17T07:27:13.674Z,60.13
2022-08-17T07:29:47.984Z,60.22
2022-08-17T07:32:19.587Z,60.20
2022-08-17T07:35:07.509Z,59.90
2022-08-17T07:37:40.194Z,60.02
2022-08-17T07:40:18.561Z,59.86
2022-08-17T07:43:23.465Z,59.81
2022-08-17T07:46:16.178Z,60.04
2022-08-17T07:48:49.725Z,60.06
2022-08-17T07:51:26.301Z,59.76
2022-08-17T07:54:12.896Z,59.73
2022-08-17T07:56:46.613Z,59.74
2022-08-17T07:59:18.150Z,59.70
2022-08-17T08:02:05.371Z,59.33
2022-08-17T08:07:38.325Z,59.59
2022-08-17T08:10:11.011Z,59.69
2022-08-17T08:12:41.320Z,59.13
2022-08-17T08:15:17.415Z,59.00
2022-08-17T08:17:54.208Z,58.76
2022-08-17T08:20:52.184Z,58.67
2022-08-17T08:23:34.930Z,58.45
2022-08-17T08:26:18.397Z,58.51
2022-08-17T08:28:52.968Z,58.09
2022-08-17T08:31:31.032Z,57.58
2022-08-17T08:34:47.415Z,57.45
2022-08-17T08:37:16.297Z,57.46
2022-08-17T08:40:00.332Z,57.36
2022-08-17T08:42:37.714Z,57.08
2022-08-17T08:45:20.577Z,56.58
2022-08-17T08:48:23.025Z,56.36
2022-08-17T08:51:03.561Z,56.62
2022-08-17T08:53:42.277Z,55.97
2022-08-17T08:56:17.659Z,55.88
2022-08-17T08:58:53.550Z,55.77
2022-08-17T09:01:31.300Z,56.06
2022-08-17T09:04:24.791Z,56.07
2022-08-17T09:07:09.294Z,55.95
2022-08-17T09:09:49.829Z,55.98
2022-08-17T09:12:29.294Z,55.74
2022-08-17T09:15:12.348Z,55.92
2022-08-17T09:18:08.565Z,55.94
2022-08-17T09:20:50.011Z,55.95
2022-08-17T09:23:32.561Z,55.89
2022-08-17T09:26:16.826Z,55.85
2022-08-17T09:28:53.102Z,55.43
2022-08-17T09:31:32.691Z,55.73
2022-08-17T09:34:06.733Z,56.08
2022-08-17T09:36:43.174Z,56.00
2022-08-17T09:39:16.455Z,55.64
2022-08-17T09:41:49.970Z,55.38
2022-08-17T09:44:26.009Z,55.01
2022-08-17T09:47:00.168Z,54.81
2022-08-17T09:49:32.848Z,54.95
2022-08-17T09:52:07.728Z,54.93
2022-08-17T09:54:40.279Z,54.42
2022-08-17T09:57:31.635Z,54.62
2022-08-17T10:00:16.583Z,54.42
2022-08-17T10:03:11.902Z,54.01
2022-08-17T10:05:48.257Z,53.77
2022-08-17T10:08:29.212Z,53.63
2022-08-17T10:11:08.652Z,53.09
2022-08-17T10:13:53.084Z,52.24
2022-08-17T10:16:28.735Z,52.27
2022-08-17T10:19:17.927Z,52.19
2022-08-17T10:22:34.653Z,51.91
2022-08-17T10:25:42.572Z,52.46
2022-08-17T10:28:25.876Z,52.11
2022-08-17T10:31:30.792Z,52.24
2022-08-17T10:34:04.758Z,51.63
2022-08-17T10:36:46.391Z,51.35
2022-08-17T10:39:27.052Z,49.50
2022-08-17T10:42:01.857Z,49.60
2022-08-17T10:44:46.447Z,47.97
2022-08-17T10:47:18.275Z,47.79
2022-08-17T10:49:49.757Z,45.22
2022-08-17T10:52:51.922Z,45.32
2022-08-17T10:55:22.070Z,42.84
2022-08-17T10:57:55.092Z,42.49
2022-08-17T11:01:00.168Z,43.38
2022-08-17T11:03:28.862Z,44.33
2022-08-17T11:06:06.385Z,44.83
2022-08-17T11:09:09.981Z,45.12
2022-08-17T11:12:09.503Z,45.92
2022-08-17T11:14:48.163Z,45.69
2022-08-17T11:17:30.836Z,45.67
2022-08-17T11:20:38.537Z,45.73
2022-08-17T11:23:43.583Z,45.89
2022-08-17T11:26:26.220Z,45.70
2022-08-17T11:29:01.474Z,45.96
2022-08-17T11:31:39.897Z,46.09
2022-08-17T11:34:18.590Z,46.64
2022-08-17T11:37:12.685Z,46.96
2022-08-17T11:40:08.317Z,47.31
2022-08-17T11:42:54.454Z,47.52
2022-08-17T11:45:55.404Z,48.34
2022-08-17T11:48:48.367Z,48.28
2022-08-17T11:51:34.744Z,48.03
2022-08-17T11:54:32.715Z,48.31
2022-08-17T11:56:56.851Z,48.38
2022-08-17T11:59:59.676Z,47.91
2022-08-17T12:02:47.442Z,47.49
2022-08-17T12:05:40.418Z,48.40
2022-08-17T12:08:20.375Z,48.23
2022-08-17T12:11:04.017Z,47.16
2022-08-17T12:13:39.560Z,47.09
2022-08-17T12:16:10.151Z,46.34
2022-08-17T12:18:42.281Z,46.01
2022-08-17T12:21:30.326Z,46.10
2022-08-17T12:24:06.595Z,46.23
2022-08-17T12:26:37.647Z,46.36
2022-08-17T12:29:18.413Z,46.43
2022-08-17T12:32:03.549Z,46.71
2022-08-17T12:34:40.804Z,45.74
2022-08-17T12:37:16.291Z,45.73
2022-08-17T12:39:52.740Z,45.78
2022-08-17T12:42:28.811Z,45.73
2022-08-17T12:44:57.453Z,45.37
2022-08-17T12:47:29.491Z,44.88
2022-08-17T12:50:29.192Z,45.09
2022-08-17T12:53:01.981Z,45.46
2022-08-17T12:55:39.013Z,45.24
2022-08-17T12:58:14.394Z,45.99
2022-08-17T13:00:49.866Z,45.98
2022-08-17T13:03:21.056Z,46.29
2022-08-17T13:05:59.961Z,46.20
2022-08-17T13:08:32.245Z,46.60
2022-08-17T13:11:03.136Z,46.31
2022-08-17T13:13:34.152Z,46.19
2022-08-17T13:16:05.067Z,46.20
2022-08-17T13:18:39.655Z,46.30
2022-08-17T13:21:23.345Z,46.89
2022-08-17T13:24:03.381Z,46.92
2022-08-17T13:26:34.938Z,46.67
2022-08-17T13:29:06.556Z,46.82
2022-08-17T13:31:51.993Z,47.07
2022-08-17T13:34:56.122Z,46.89
2022-08-17T13:37:33.170Z,46.99
2022-08-17T13:40:23.900Z,46.51
2022-08-17T13:42:54.325Z,46.61
2022-08-17T13:45:51.116Z,46.44
2022-08-17T13:48:30.336Z,46.64
2022-08-17T13:51:30.440Z,45.73
2022-08-17T13:54:22.262Z,45.59
2022-08-17T13:57:02.129Z,45.83
2022-08-17T13:59:52.714Z,46.06
2022-08-17T14:02:22.533Z,45.55
2022-08-17T14:04:54.462Z,44.70
2022-08-17T14:07:32.191Z,44.83
2022-08-17T14:10:06.821Z,44.70
2022-08-17T14:12:36.389Z,44.96
2022-08-17T14:15:05.418Z,45.25
2022-08-17T14:17:38.130Z,45.32
2022-08-17T14:20:10.683Z,45.01
2022-08-17T14:22:41.678Z,45.37
2022-08-17T14:25:13.570Z,45.48
2022-08-17T14:27:52.318Z,45.75
2022-08-17T14:30:24.947Z,46.21
2022-08-17T14:32:54.075Z,46.60
2022-08-17T14:35:24.479Z,46.78
2022-08-17T14:37:54.114Z,47.12
2022-08-17T14:40:25.768Z,46.99
2022-08-17T14:42:55.820Z,47.13
2022-08-17T14:45:29.652Z,47.54
2022-08-17T14:48:01.344Z,47.55
2022-08-17T14:50:29.676Z,47.69
2022-08-17T14:53:01.573Z,47.73
2022-08-17T14:55:32.661Z,48.11
2022-08-17T14:58:01.096Z,48.08
2022-08-17T15:00:29.653Z,47.96
2022-08-17T15:03:14.982Z,47.98
2022-08-17T15:05:57.173Z,48.10
2022-08-17T15:08:34.665Z,48.53
2022-08-17T15:11:24.419Z,48.30
2022-08-17T15:14:07.804Z,48.54
2022-08-17T15:16:40.417Z,48.73
2022-08-17T15:19:09.174Z,48.92
2022-08-17T15:21:37.834Z,49.15
2022-08-17T15:24:07.033Z,49.31
2022-08-17T15:26:37.970Z,49.20
2022-08-17T15:29:06.328Z,49.42
2022-08-17T15:31:34.714Z,49.52
2022-08-17T15:34:05.238Z,49.55
2022-08-17T15:36:36.440Z,49.50
2022-08-17T15:39:04.853Z,49.86
2022-08-17T15:41:33.291Z,50.46
2022-08-17T15:44:02.973Z,50.80
2022-08-17T15:46:31.531Z,51.20
2022-08-17T15:49:03.644Z,51.43
2022-08-17T15:51:34.906Z,51.86
2022-08-17T15:54:22.333Z,52.30
2022-08-17T15:56:51.707Z,52.99
2022-08-17T15:59:21.491Z,52.30
2022-08-17T16:03:01.563Z,51.66
2022-08-17T16:04:42.653Z,53.46
2022-08-17T16:07:12.670Z,54.71
2022-08-17T16:09:42.154Z,55.52
2022-08-17T16:12:13.060Z,55.87
2022-08-17T16:14:42.832Z,56.11
2022-08-17T16:17:38.668Z,56.23
2022-08-17T16:19:59.795Z,56.80
2022-08-17T16:22:35.596Z,56.71
2022-08-17T16:25:05.968Z,57.60
2022-08-17T16:27:34.352Z,57.84
2022-08-17T16:30:04.890Z,57.87
2022-08-17T16:32:33.191Z,57.99
2022-08-17T16:35:03.354Z,58.06
2022-08-17T16:37:32.086Z,58.10
2022-08-17T16:40:03.520Z,57.93
2022-08-17T16:42:34.101Z,58.03
2022-08-17T16:45:08.024Z,57.92
2022-08-17T16:47:44.640Z,57.90
2022-08-17T16:50:15.405Z,58.16
2022-08-17T16:52:44.004Z,58.22
2022-08-17T16:55:13.394Z,58.22
2022-08-17T16:57:47.562Z,58.13
2022-08-17T17:00:21.016Z,58.25
2022-08-17T17:02:50.068Z,58.20
2022-08-17T17:05:44.682Z,57.99
2022-08-17T17:08:25.665Z,58.34
2022-08-17T17:10:56.944Z,58.38
2022-08-17T17:13:32.308Z,58.21
2022-08-17T17:16:08.812Z,58.29
2022-08-17T17:18:42.733Z,58.29
2022-08-17T17:21:14.984Z,58.35
2022-08-17T17:23:55.080Z,58.19
2022-08-17T17:26:44.339Z,58.25
2022-08-17T17:29:27.279Z,58.18
2022-08-17T17:32:07.545Z,58.31
2022-08-17T17:34:36.403Z,58.65
2022-08-17T17:37:11.918Z,58.44
2022-08-17T17:39:49.030Z,58.32
2022-08-17T17:42:21.817Z,58.46
2022-08-17T17:44:56.179Z,58.45
2022-08-17T17:47:26.702Z,58.58
2022-08-17T17:49:54.984Z,58.67
2022-08-17T17:52:32.184Z,58.60
2022-08-17T17:55:08.678Z,58.85
2022-08-17T17:57:55.848Z,58.61
2022-08-17T18:00:27.243Z,58.87
2022-08-17T18:03:11.137Z,58.66
2022-08-17T18:05:49.741Z,58.72
2022-08-17T18:08:52.944Z,58.58
2022-08-17T18:11:58.972Z,58.58
2022-08-17T18:14:40.158Z,58.58
2022-08-17T18:17:08.703Z,58.77
2022-08-17T18:19:40.389Z,58.94
2022-08-17T18:22:14.070Z,58.83
2022-08-17T18:24:44.897Z,58.96
2022-08-17T18:27:26.516Z,58.83
2022-08-17T18:29:56.563Z,59.25
2022-08-17T18:32:34.551Z,59.01
2022-08-17T18:35:28.641Z,58.90
2022-08-17T18:37:59.575Z,59.19
2022-08-17T18:40:37.727Z,59.25
2022-08-17T18:43:13.469Z,59.09
2022-08-17T18:45:46.938Z,59.33
2022-08-17T18:48:25.360Z,59.32
2022-08-17T18:50:58.441Z,59.38
2022-08-17T18:54:02.730Z,59.19
2022-08-17T18:56:33.591Z,59.57
2022-08-17T18:59:14.473Z,59.11
2022-08-17T19:01:54.487Z,59.23
2022-08-17T19:04:35.431Z,59.01
2022-08-17T19:07:24.612Z,59.12
2022-08-17T19:09:57.614Z,59.64
2022-08-17T19:12:31.302Z,59.67
2022-08-17T19:15:01.243Z,59.84
2022-08-17T19:17:38.799Z,59.70
2022-08-17T19:20:15.376Z,59.61
2022-08-17T19:22:53.869Z,59.67
2022-08-17T19:25:27.290Z,59.86
2022-08-17T19:28:02.292Z,59.89
2022-08-17T19:30:31.970Z,60.13
2022-08-17T19:33:03.131Z,60.22
2022-08-17T19:35:42.324Z,59.97
2022-08-17T19:38:26.890Z,59.99
2022-08-17T19:41:04.956Z,60.03
2022-08-17T19:44:07.142Z,59.99
2022-08-17T19:46:48.554Z,60.05
2022-08-17T19:49:40.259Z,60.01
2022-08-17T19:52:36.532Z,59.96
2022-08-17T19:55:19.902Z,60.04
2022-08-17T19:58:01.914Z,60.11
2022-08-17T20:00:31.739Z,60.53
2022-08-17T20:03:06.340Z,60.54
2022-08-17T20:06:08.489Z,60.63
2022-08-17T20:08:30.230Z,60.73
2022-08-17T20:11:07.784Z,60.69
2022-08-17T20:13:41.193Z,61.03
2022-08-17T20:16:10.243Z,60.94
2022-08-17T20:18:47.600Z,60.92
2022-08-17T20:21:20.764Z,60.82
2022-08-17T20:23:54.452Z,60.75
2022-08-17T20:26:28.320Z,60.72
2022-08-17T20:29:10.691Z,60.76
2022-08-17T20:31:45.713Z,61.03
2022-08-17T20:34:36.895Z,61.08
2022-08-17T20:37:09.137Z,61.44
2022-08-17T20:39:42.776Z,61.41
2022-08-17T20:42:30.625Z,61.22
2022-08-17T20:45:02.837Z,61.55
2022-08-17T20:47:35.089Z,61.48
2022-08-17T20:50:07.009Z,61.49
2022-08-17T20:52:54.345Z,61.12
2022-08-17T20:55:53.193Z,61.12
2022-08-17T20:58:47.781Z,61.21
2022-08-17T21:01:35.477Z,61.62
2022-08-17T21:04:09.122Z,61.49
2022-08-17T21:07:17.324Z,61.34
2022-08-17T21:09:46.533Z,61.66
2022-08-17T21:12:42.574Z,61.36
2022-08-17T21:15:32.131Z,61.31
2022-08-17T21:18:09.766Z,61.18
2022-08-17T21:20:48.437Z,61.21
2022-08-17T21:23:37.692Z,61.25
2022-08-17T21:26:17.319Z,61.32
2022-08-17T21:29:17.923Z,61.37
2022-08-17T21:32:19.086Z,61.27
2022-08-17T21:35:20.375Z,61.28
2022-08-17T21:37:53.167Z,61.38
2022-08-17T21:40:26.204Z,61.16
2022-08-17T21:42:58.115Z,61.24
2022-08-17T21:45:28.819Z,61.20
2022-08-17T21:48:14.420Z,60.91
2022-08-17T21:50:46.134Z,61.17
2022-08-17T21:53:25.418Z,61.15
2022-08-17T21:55:55.393Z,61.12
2022-08-17T21:58:31.195Z,60.89
2022-08-17T22:01:23.496Z,60.87
2022-08-17T22:04:03.894Z,61.13
2022-08-17T22:06:38.067Z,61.44
2022-08-17T22:09:12.855Z,61.83
2022-08-17T22:12:07.315Z,61.77
2022-08-17T22:14:52.935Z,62.14
2022-08-17T22:17:24.978Z,62.21
2022-08-17T22:19:57.375Z,62.22
2022-08-17T22:22:33.562Z,62.15
2022-08-17T22:25:04.138Z,62.27
2022-08-17T22:27:56.463Z,62.05
2022-08-17T22:30:32.094Z,61.85
2022-08-17T22:33:01.873Z,61.96
2022-08-17T22:35:37.511Z,61.63
2022-08-17T22:38:33.699Z,61.54
2022-08-17T22:41:27.929Z,61.65
2022-08-17T22:43:57.480Z,61.79
2022-08-17T22:46:26.672Z,61.73
2022-08-17T22:48:57.894Z,61.68
2022-08-17T22:51:30.877Z,61.40
2022-08-17T22:54:31.229Z,61.47
2022-08-17T22:57:20.411Z,61.59
2022-08-17T22:59:51.123Z,61.44
2022-08-17T23:02:24.627Z,61.31
2022-08-17T23:04:57.490Z,61.28
2022-08-17T23:07:26.882Z,61.45
2022-08-17T23:09:55.450Z,61.50
2022-08-17T23:12:27.442Z,61.45
2022-08-17T23:15:01.594Z,61.32
2022-08-17T23:17:36.922Z,61.48
2022-08-17T23:20:08.502Z,61.37
2022-08-17T23:22:51.110Z,61.26
2022-08-17T23:25:28.109Z,61.05
2022-08-17T23:27:57.384Z,61.40
2022-08-17T23:30:28.544Z,61.25
2022-08-17T23:32:59.497Z,61.21
2022-08-17T23:35:39.931Z,61.26
2022-08-17T23:38:11.359Z,61.12
2022-08-17T23:40:40.157Z,61.19
2022-08-17T23:43:17.650Z,61.19
2022-08-17T23:45:51.935Z,61.18
2022-08-17T23:48:28.408Z,61.08
2022-08-17T23:51:09.149Z,61.12
2022-08-17T23:53:42.000Z,61.01
2022-08-17T23:56:11.628Z,61.08
2022-08-17T23:58:45.231Z,60.99
